createdAt,value
2023-02-02T00:04:35.898Z,5.40
2023-02-02T00:09:39.198Z,4.23
2023-02-02T00:14:43.862Z,2.47
2023-02-02T00:19:47.689Z,5.17
2023-02-02T00:24:51.006Z,3.60
2023-02-02T00:29:57.556Z,6.03
2023-02-02T00:35:02.700Z,5.03
2023-02-02T00:40:07.177Z,7.45
2023-02-02T00:45:17.977Z,3.55
2023-02-02T00:50:22.747Z,7.80
2023-02-02T00:55:26.417Z,4.20
2023-02-02T01:00:31.323Z,5.93
2023-02-02T01:05:35.824Z,3.30
2023-02-02T01:10:39.132Z,5.30
2023-02-02T01:15:43.815Z,4.30
2023-02-02T01:20:47.195Z,3.85
2023-02-02T01:25:55.342Z,4.00
2023-02-02T01:31:00.445Z,8.87
2023-02-02T01:36:06.989Z,5.13
2023-02-02T01:41:13.963Z,3.53
2023-02-02T01:46:20.127Z,3.17
2023-02-02T01:51:26.698Z,4.68
2023-02-02T01:56:33.950Z,3.10
2023-02-02T02:01:38.706Z,4.53
2023-02-02T02:06:42.708Z,5.63
2023-02-02T02:11:46.119Z,3.38
2023-02-02T02:17:01.442Z,4.90
2023-02-02T02:22:28.465Z,6.53
2023-02-02T02:28:01.819Z,5.27
2023-02-02T02:33:09.409Z,0.65
2023-02-02T02:38:24.164Z,0.20
2023-02-02T02:43:33.015Z,0.50
2023-02-02T02:48:38.006Z,0.28
2023-02-02T02:53:41.456Z,0.30
2023-02-02T02:58:55.201Z,0.10
2023-02-02T03:04:10.098Z,0.00
2023-02-02T03:09:16.916Z,0.00
2023-02-02T03:14:20.293Z,0.00
2023-02-02T03:19:25.188Z,0.00
2023-02-02T03:24:28.503Z,0.00
2023-02-02T03:29:31.867Z,0.00
2023-02-02T03:34:36.547Z,0.00
2023-02-02T03:39:40.102Z,0.00
2023-02-02T03:44:43.381Z,0.40
2023-02-02T03:49:48.035Z,0.00
2023-02-02T03:54:51.349Z,0.30
2023-02-02T03:59:54.676Z,0.10
2023-02-02T04:04:59.581Z,0.20
2023-02-02T04:10:02.918Z,0.00
2023-02-02T04:15:07.418Z,0.00
2023-02-02T04:20:13.537Z,0.00
2023-02-02T04:25:17.174Z,0.10
2023-02-02T04:30:21.249Z,0.10
2023-02-02T04:35:26.286Z,0.05
2023-02-02T04:40:29.879Z,0.00
2023-02-02T04:45:33.911Z,0.10
2023-02-02T04:50:39.003Z,0.45
2023-02-02T04:55:42.332Z,0.10
2023-02-02T05:00:45.675Z,0.00
2023-02-02T05:05:50.412Z,0.80
2023-02-02T05:10:53.746Z,0.70
2023-02-02T05:15:57.055Z,0.10
2023-02-02T05:21:03.060Z,0.00
2023-02-02T05:26:06.475Z,0.10
2023-02-02T05:31:10.613Z,0.00
2023-02-02T05:36:15.823Z,0.00
2023-02-02T05:41:19.162Z,0.00
2023-02-02T05:46:22.489Z,0.00
2023-02-02T05:51:30.669Z,0.15
2023-02-02T05:56:34.016Z,0.00
2023-02-02T06:01:37.427Z,0.10
2023-02-02T06:06:42.445Z,1.35
2023-02-02T06:11:46.659Z,0.45
2023-02-02T06:16:49.974Z,0.80
2023-02-02T06:21:54.680Z,1.42
2023-02-02T06:26:57.996Z,3.35
2023-02-02T06:32:01.448Z,1.13
2023-02-02T06:37:06.201Z,1.57
2023-02-02T06:42:20.811Z,1.17
2023-02-02T06:47:26.886Z,3.60
2023-02-02T06:52:31.711Z,0.50
2023-02-02T06:57:35.023Z,1.20
2023-02-02T07:02:38.522Z,2.13
2023-02-02T07:07:43.272Z,2.45
2023-02-02T07:12:46.668Z,3.42
2023-02-02T07:17:49.971Z,2.77
2023-02-02T07:22:54.673Z,2.03
2023-02-02T07:27:57.981Z,0.90
2023-02-02T07:33:01.968Z,1.10
2023-02-02T07:38:06.632Z,1.50
2023-02-02T07:43:10.291Z,0.32
2023-02-02T07:48:13.579Z,0.80
2023-02-02T07:53:18.252Z,0.30
2023-02-02T07:58:21.666Z,0.40
2023-02-02T08:03:25.042Z,1.10
2023-02-02T08:08:30.031Z,0.50
2023-02-02T08:13:33.314Z,0.80
2023-02-02T08:18:37.264Z,1.10
2023-02-02T08:23:42.828Z,0.70
2023-02-02T08:28:48.238Z,0.38
2023-02-02T08:33:54.050Z,0.60
2023-02-02T08:39:03.268Z,0.30
2023-02-02T08:44:09.902Z,0.28
2023-02-02T08:49:15.469Z,0.10
2023-02-02T08:54:20.273Z,0.28
2023-02-02T08:59:23.588Z,0.20
2023-02-02T09:04:26.868Z,0.38
2023-02-02T09:09:31.533Z,1.60
2023-02-02T09:14:34.918Z,0.65
2023-02-02T09:19:38.186Z,0.40
2023-02-02T09:24:42.862Z,1.00
2023-02-02T09:29:46.240Z,0.10
2023-02-02T09:34:49.602Z,0.30
2023-02-02T09:39:54.340Z,0.30
2023-02-02T09:45:17.722Z,0.57
2023-02-02T09:50:38.532Z,0.50
2023-02-02T09:55:46.490Z,0.97
2023-02-02T10:00:56.495Z,1.30
2023-02-02T10:06:05.506Z,0.98
2023-02-02T10:11:28.571Z,1.40
2023-02-02T10:16:33.575Z,1.70
2023-02-02T10:21:44.544Z,0.60
2023-02-02T10:26:51.689Z,1.48
2023-02-02T10:32:03.393Z,5.40
2023-02-02T10:37:28.364Z,3.85
2023-02-02T10:42:45.485Z,1.88
2023-02-02T10:47:48.944Z,6.40
2023-02-02T10:52:56.913Z,2.83
2023-02-02T10:58:12.624Z,2.90
2023-02-02T11:03:17.784Z,4.50
2023-02-02T11:08:24.079Z,5.10
2023-02-02T11:13:33.440Z,5.43
2023-02-02T11:18:36.746Z,4.10
2023-02-02T11:23:40.196Z,2.83
2023-02-02T11:28:44.941Z,0.90
2023-02-02T11:33:51.532Z,1.27
2023-02-02T11:39:16.507Z,1.00
2023-02-02T11:44:26.970Z,1.65
2023-02-02T11:49:30.702Z,1.75
2023-02-02T11:54:38.360Z,1.00
2023-02-02T11:59:44.451Z,1.25
2023-02-02T12:04:49.409Z,1.30
2023-02-02T12:09:52.821Z,1.40
2023-02-02T12:15:05.174Z,1.00
2023-02-02T12:20:17.676Z,1.15
2023-02-02T12:25:45.625Z,3.63
2023-02-02T12:30:58.115Z,4.57
2023-02-02T12:36:23.998Z,4.43
2023-02-02T12:41:38.201Z,5.37
2023-02-02T12:46:58.261Z,5.87
2023-02-02T12:52:24.201Z,7.37
2023-02-02T12:57:38.687Z,9.77
2023-02-02T13:02:55.510Z,10.10
2023-02-02T13:08:02.709Z,10.57
2023-02-02T13:13:10.124Z,10.93
2023-02-02T13:18:20.042Z,12.13
2023-02-02T13:23:28.851Z,13.25
2023-02-02T13:28:41.485Z,10.77
2023-02-02T13:33:51.073Z,6.68
2023-02-02T13:38:57.679Z,6.00
2023-02-02T13:44:07.477Z,5.10
2023-02-02T13:49:16.990Z,11.95
2023-02-02T13:54:51.844Z,8.60
2023-02-02T14:00:03.475Z,6.10
2023-02-02T14:05:23.920Z,5.03
2023-02-02T14:10:31.737Z,4.50
2023-02-02T14:15:40.363Z,2.78
2023-02-02T14:20:47.784Z,3.83
2023-02-02T14:26:05.340Z,3.73
2023-02-02T14:31:36.420Z,5.82
2023-02-02T14:36:45.716Z,4.43
2023-02-02T14:42:39.930Z,2.03
2023-02-02T14:47:50.105Z,2.45
2023-02-02T14:53:03.068Z,2.90
2023-02-02T14:58:08.025Z,3.13
2023-02-02T15:03:36.329Z,3.75
2023-02-02T15:08:41.087Z,3.35
2023-02-02T15:13:49.785Z,4.72
2023-02-02T15:19:00.826Z,4.80
2023-02-02T15:24:08.074Z,4.77
2023-02-02T15:29:19.159Z,5.37
2023-02-02T15:34:27.426Z,6.40
2023-02-02T15:39:34.668Z,8.50
2023-02-02T15:44:38.880Z,6.35
2023-02-02T15:49:42.912Z,9.95
2023-02-02T15:54:54.034Z,8.40
2023-02-02T15:59:58.134Z,9.55
2023-02-02T16:05:02.118Z,5.13
2023-02-02T16:10:09.147Z,4.53
2023-02-02T16:15:24.277Z,13.35
2023-02-02T16:20:29.770Z,8.77
2023-02-02T16:25:38.300Z,6.43
2023-02-02T16:30:42.230Z,8.43
2023-02-02T16:35:45.686Z,10.10
2023-02-02T16:40:52.076Z,7.20
2023-02-02T16:45:57.884Z,6.50
2023-02-02T16:51:37.039Z,5.82
2023-02-02T16:56:43.772Z,3.90
2023-02-02T17:01:50.566Z,7.53
2023-02-02T17:06:55.306Z,5.87
2023-02-02T17:12:02.691Z,4.35
2023-02-02T17:17:08.308Z,3.47
2023-02-02T17:22:12.128Z,5.80
2023-02-02T17:27:28.115Z,8.03
2023-02-02T17:32:34.631Z,8.80
2023-02-02T17:37:38.914Z,8.18
2023-02-02T17:42:44.647Z,13.82
2023-02-02T17:47:48.621Z,13.40
2023-02-02T17:52:51.900Z,8.55
2023-02-02T17:57:56.615Z,13.50
2023-02-02T18:03:02.712Z,14.90
2023-02-02T18:08:06.652Z,8.75
2023-02-02T18:13:14.848Z,8.47
2023-02-02T18:18:18.542Z,6.18
2023-02-02T18:23:24.462Z,4.72
2023-02-02T18:28:29.317Z,4.32
2023-02-02T18:33:33.609Z,8.45
2023-02-02T18:38:37.046Z,7.68
2023-02-02T18:43:41.792Z,6.90
2023-02-02T18:48:45.113Z,7.68
2023-02-02T18:53:50.251Z,11.38
2023-02-02T18:58:55.014Z,8.90
2023-02-02T19:03:58.408Z,9.25
2023-02-02T19:09:01.816Z,10.53
2023-02-02T19:14:14.389Z,6.47
2023-02-02T19:19:24.381Z,5.10
2023-02-02T19:24:29.115Z,5.43
2023-02-02T19:29:39.574Z,4.50
2023-02-02T19:34:43.417Z,3.50
2023-02-02T19:39:47.390Z,2.20
2023-02-02T19:44:52.171Z,2.58
2023-02-02T19:49:55.523Z,3.83
2023-02-02T19:54:58.819Z,3.03
2023-02-02T20:00:13.370Z,2.30
2023-02-02T20:05:20.873Z,1.63
2023-02-02T20:10:26.228Z,2.28
2023-02-02T20:15:34.482Z,2.40
2023-02-02T20:20:40.532Z,2.30
2023-02-02T20:25:45.661Z,4.67
2023-02-02T20:30:50.511Z,2.00
2023-02-02T20:35:54.171Z,1.40
2023-02-02T20:40:58.115Z,1.33
2023-02-02T20:46:04.441Z,1.42
2023-02-02T20:51:08.015Z,1.30
2023-02-02T20:56:11.318Z,1.03
2023-02-02T21:01:16.395Z,0.80
2023-02-02T21:06:20.174Z,1.15
2023-02-02T21:11:23.643Z,2.90
2023-02-02T21:16:28.907Z,5.20
2023-02-02T21:21:33.236Z,4.40
2023-02-02T21:26:36.897Z,7.22
2023-02-02T21:31:41.828Z,7.35
2023-02-02T21:36:48.018Z,5.95
2023-02-02T21:41:56.252Z,6.50
2023-02-02T21:47:02.035Z,2.75
2023-02-02T21:52:15.864Z,2.87
2023-02-02T21:57:21.184Z,2.78
2023-02-02T22:02:43.293Z,2.23
2023-02-02T22:07:50.040Z,2.20
2023-02-02T22:12:53.427Z,3.47
2023-02-02T22:17:58.212Z,5.07
2023-02-02T22:23:03.236Z,4.78
2023-02-02T22:28:18.068Z,4.07
2023-02-02T22:33:26.378Z,4.10
2023-02-02T22:38:29.732Z,4.43
2023-02-02T22:43:33.037Z,4.03
2023-02-02T22:48:37.702Z,3.03
2023-02-02T22:53:40.994Z,3.78
2023-02-02T22:58:44.259Z,3.47
2023-02-02T23:03:49.744Z,3.78
2023-02-02T23:08:53.057Z,4.10
2023-02-02T23:13:56.383Z,6.18
2023-02-02T23:19:01.085Z,7.63
2023-02-02T23:24:04.446Z,8.90
2023-02-02T23:29:07.748Z,6.78
2023-02-02T23:34:12.486Z,4.75
2023-02-02T23:39:15.854Z,4.97
2023-02-02T23:44:19.135Z,6.43
2023-02-02T23:49:24.402Z,5.68
2023-02-02T23:54:28.797Z,4.53
2023-02-02T23:59:32.246Z,2.93
